createdAt,value
2023-05-05T00:02:57.811Z,9.35
2023-05-05T00:08:59.765Z,7.35
2023-05-05T00:15:01.630Z,7.82
2023-05-05T00:21:04.529Z,6.13
2023-05-05T00:27:06.497Z,7.53
2023-05-05T00:33:11.145Z,6.68
2023-05-05T00:39:13.199Z,9.18
2023-05-05T00:45:16.265Z,6.50
2023-05-05T00:51:19.949Z,7.82
2023-05-05T00:57:21.896Z,6.53
2023-05-05T01:03:26.328Z,10.80
2023-05-05T01:09:44.030Z,9.43
2023-05-05T01:15:56.676Z,7.05
2023-05-05T01:22:02.240Z,7.93
2023-05-05T01:28:11.621Z,9.82
2023-05-05T01:34:16.677Z,9.10
2023-05-05T01:40:25.304Z,5.93
2023-05-05T01:46:27.845Z,8.43
2023-05-05T01:52:33.450Z,6.65
2023-05-05T01:58:36.284Z,5.63
2023-05-05T02:04:43.558Z,7.47
2023-05-05T02:10:47.789Z,5.57
2023-05-05T02:16:51.234Z,8.98
2023-05-05T02:22:54.099Z,8.40
2023-05-05T02:29:07.478Z,5.53
2023-05-05T02:35:19.897Z,6.53
2023-05-05T02:41:23.270Z,10.60
2023-05-05T02:47:38.422Z,6.40
2023-05-05T02:53:40.363Z,8.20
2023-05-05T02:59:48.726Z,8.13
2023-05-05T03:06:07.371Z,10.45
2023-05-05T03:12:13.691Z,7.55
2023-05-05T03:18:18.230Z,11.10
2023-05-05T03:24:21.241Z,7.18
2023-05-05T03:30:22.972Z,8.85
2023-05-05T03:36:25.770Z,5.93
2023-05-05T03:42:28.930Z,6.45
2023-05-05T03:48:30.891Z,8.18
2023-05-05T03:54:32.718Z,6.90
2023-05-05T04:00:34.695Z,8.93
2023-05-05T04:06:36.767Z,5.13
2023-05-05T04:12:38.729Z,6.85
2023-05-05T04:18:40.528Z,7.28
2023-05-05T04:24:42.234Z,10.88
2023-05-05T04:30:43.974Z,7.25
2023-05-05T04:36:45.942Z,4.95
2023-05-05T04:42:47.751Z,9.50
2023-05-05T04:48:49.491Z,6.00
2023-05-05T04:54:51.247Z,5.80
2023-05-05T05:00:53.022Z,10.38
2023-05-05T05:06:56.211Z,7.32
2023-05-05T05:13:00.253Z,5.95
2023-05-05T05:19:02.127Z,8.88
2023-05-05T05:25:04.245Z,8.27
2023-05-05T05:31:06.883Z,8.40
2023-05-05T05:37:08.694Z,5.63
2023-05-05T05:43:10.672Z,4.80
2023-05-05T05:49:12.477Z,3.90
2023-05-05T05:55:14.269Z,6.63
2023-05-05T06:01:16.182Z,5.15
2023-05-05T06:07:18.244Z,6.78
2023-05-05T06:13:20.362Z,6.35
2023-05-05T06:19:22.207Z,8.48
2023-05-05T06:25:24.027Z,6.82
2023-05-05T06:31:27.936Z,10.13
2023-05-05T06:37:29.847Z,5.80
2023-05-05T06:43:31.629Z,9.18
2023-05-05T06:49:33.820Z,9.38
2023-05-05T06:55:35.584Z,6.65
2023-05-05T07:01:37.585Z,6.78
2023-05-05T07:07:49.753Z,10.90
2023-05-05T07:13:51.568Z,10.63
2023-05-05T07:19:54.994Z,12.15
2023-05-05T07:25:56.878Z,10.77
2023-05-05T07:31:58.716Z,12.77
2023-05-05T07:38:00.570Z,12.15
2023-05-05T07:44:02.482Z,12.93
2023-05-05T07:50:04.735Z,11.60
2023-05-05T07:56:07.860Z,13.90
2023-05-05T08:02:15.489Z,16.60
2023-05-05T08:08:17.476Z,13.32
2023-05-05T08:14:19.275Z,15.23
2023-05-05T08:20:21.784Z,16.40
2023-05-05T08:26:23.795Z,14.15
2023-05-05T08:32:29.756Z,12.55
2023-05-05T08:38:32.218Z,14.52
2023-05-05T08:44:34.086Z,10.82
2023-05-05T08:50:39.476Z,14.52
2023-05-05T08:56:42.097Z,10.18
2023-05-05T09:02:44.866Z,14.30
2023-05-05T09:08:47.055Z,15.52
2023-05-05T09:14:48.895Z,12.27
2023-05-05T09:20:50.811Z,13.45
2023-05-05T09:26:55.989Z,9.55
2023-05-05T09:33:00.476Z,14.60
2023-05-05T09:39:06.464Z,14.77
2023-05-05T09:45:28.626Z,10.15
2023-05-05T09:51:31.772Z,11.93
2023-05-05T09:57:34.196Z,14.20
2023-05-05T10:03:51.472Z,12.10
2023-05-05T10:09:53.244Z,9.38
2023-05-05T10:15:56.719Z,13.52
2023-05-05T10:22:03.874Z,10.80
2023-05-05T10:28:09.730Z,10.90
2023-05-05T10:34:20.961Z,13.35
2023-05-05T10:40:25.233Z,16.40
2023-05-05T10:46:28.757Z,19.17
2023-05-05T10:53:03.411Z,16.00
2023-05-05T10:59:37.238Z,16.33
2023-05-05T11:06:04.717Z,18.58
2023-05-05T11:12:07.154Z,18.15
2023-05-05T11:18:37.760Z,16.88
2023-05-05T11:24:42.744Z,15.77
2023-05-05T11:31:15.978Z,17.70
2023-05-05T11:37:18.010Z,15.40
2023-05-05T11:43:19.816Z,14.15
2023-05-05T11:49:28.779Z,15.98
2023-05-05T11:55:30.691Z,14.85
2023-05-05T12:01:33.668Z,20.58
2023-05-05T12:07:35.608Z,16.02
2023-05-05T12:13:37.566Z,14.15
2023-05-05T12:19:46.339Z,10.43
2023-05-05T12:25:48.116Z,13.82
2023-05-05T12:31:49.890Z,11.43
2023-05-05T12:37:51.656Z,14.43
2023-05-05T12:43:57.627Z,15.05
2023-05-05T12:50:00.529Z,12.88
2023-05-05T12:56:03.149Z,13.48
2023-05-05T13:02:05.122Z,13.80
2023-05-05T13:08:07.164Z,13.77
2023-05-05T13:14:09.008Z,17.15
2023-05-05T13:20:11.260Z,16.33
2023-05-05T13:26:13.679Z,18.10
2023-05-05T13:32:15.583Z,16.85
2023-05-05T13:38:17.382Z,15.93
2023-05-05T13:44:19.288Z,17.85
2023-05-05T13:50:21.180Z,18.20
2023-05-05T13:56:26.209Z,15.50
2023-05-05T14:02:29.366Z,14.65
2023-05-05T14:08:31.264Z,17.00
2023-05-05T14:14:33.111Z,13.40
2023-05-05T14:20:35.121Z,12.52
2023-05-05T14:26:36.854Z,14.27
2023-05-05T14:32:38.633Z,13.80
2023-05-05T14:38:40.469Z,17.65
2023-05-05T14:44:42.272Z,16.77
2023-05-05T14:50:46.346Z,19.80
2023-05-05T14:56:48.172Z,17.90
2023-05-05T15:02:50.035Z,19.23
2023-05-05T15:08:51.872Z,17.80
2023-05-05T15:14:55.333Z,23.85
2023-05-05T15:20:58.097Z,11.93
2023-05-05T15:26:59.868Z,7.13
2023-05-05T15:33:02.894Z,6.63
2023-05-05T15:39:04.773Z,6.43
2023-05-05T15:45:08.232Z,9.13
2023-05-05T15:51:12.438Z,6.93
2023-05-05T15:57:14.274Z,6.93
2023-05-05T16:03:16.271Z,4.90
2023-05-05T16:09:18.162Z,5.03
2023-05-05T16:15:20.165Z,4.18
2023-05-05T16:21:22.004Z,7.65
2023-05-05T16:27:24.516Z,5.45
2023-05-05T16:33:26.354Z,3.40
2023-05-05T16:39:28.431Z,4.90
2023-05-05T16:45:30.480Z,6.93
2023-05-05T16:51:32.261Z,4.47
2023-05-05T16:57:34.073Z,5.07
2023-05-05T17:03:35.982Z,2.65
2023-05-05T17:09:37.888Z,3.97
2023-05-05T17:15:40.559Z,3.67
2023-05-05T17:21:45.689Z,3.85
2023-05-05T17:27:47.593Z,12.25
2023-05-05T17:33:49.394Z,3.38
2023-05-05T17:39:51.260Z,3.38
2023-05-05T17:45:53.217Z,2.85
2023-05-05T17:51:55.127Z,5.03
2023-05-05T17:57:58.935Z,3.78
2023-05-05T18:04:00.796Z,6.97
2023-05-05T18:10:02.585Z,3.30
2023-05-05T18:16:05.726Z,3.78
2023-05-05T18:22:07.620Z,5.80
2023-05-05T18:28:09.411Z,5.88
2023-05-05T18:34:11.185Z,5.50
2023-05-05T18:40:14.239Z,6.45
2023-05-05T18:46:16.201Z,7.43
2023-05-05T18:52:18.026Z,4.18
2023-05-05T18:58:19.984Z,7.70
2023-05-05T19:04:30.791Z,9.18
2023-05-05T19:10:33.397Z,5.95
2023-05-05T19:16:35.629Z,6.82
2023-05-05T19:22:37.550Z,6.35
2023-05-05T19:28:39.343Z,4.75
2023-05-05T19:34:42.360Z,8.02
2023-05-05T19:40:44.202Z,5.60
2023-05-05T19:46:46.165Z,7.68
2023-05-05T19:52:47.891Z,8.38
2023-05-05T19:58:58.951Z,5.57
2023-05-05T20:05:01.037Z,7.10
2023-05-05T20:11:04.842Z,8.35
2023-05-05T20:17:06.606Z,4.75
2023-05-05T20:23:08.544Z,5.32
2023-05-05T20:29:10.301Z,10.77
2023-05-05T20:35:13.064Z,5.43
2023-05-05T20:41:14.905Z,9.88
2023-05-05T20:47:18.430Z,8.68
2023-05-05T20:53:21.240Z,9.60
2023-05-05T20:59:23.196Z,7.78
2023-05-05T21:05:25.796Z,7.40
2023-05-05T21:11:27.567Z,11.23
2023-05-05T21:17:29.668Z,10.57
2023-05-05T21:23:31.622Z,12.57
2023-05-05T21:29:37.534Z,13.63
2023-05-05T21:35:39.363Z,15.88
2023-05-05T21:41:41.333Z,16.33
2023-05-05T21:47:43.254Z,16.88
2023-05-05T21:53:45.006Z,15.80
2023-05-05T21:59:46.965Z,18.25
2023-05-05T22:05:48.725Z,18.45
2023-05-05T22:11:51.217Z,19.35
2023-05-05T22:17:53.043Z,20.08
2023-05-05T22:23:54.771Z,19.23
2023-05-05T22:29:56.596Z,18.95
2023-05-05T22:35:58.382Z,20.90
2023-05-05T22:42:00.998Z,18.33
2023-05-05T22:48:02.856Z,21.15
2023-05-05T22:54:04.729Z,17.92
2023-05-05T23:00:08.697Z,18.48
2023-05-05T23:06:10.500Z,18.95
2023-05-05T23:12:12.533Z,20.55
2023-05-05T23:18:14.357Z,18.65
2023-05-05T23:24:16.096Z,20.35
2023-05-05T23:30:20.244Z,20.83
2023-05-05T23:36:21.967Z,21.17
2023-05-05T23:42:24.404Z,19.05
2023-05-05T23:48:26.268Z,19.73
2023-05-05T23:54:28.413Z,21.15
